Terminal Aerodrome Forecast
Issued by NWS

Current Version | Previous Version | Graphics & Text | Print | Product List | Glossary On
Versions: 1 2 3 4 5 6 7 8 9 10 11 12 13 14 15 16 17 18 19 20 21 22 23 24 25 26 27 28 29 30 31 32 33 34
000
FTUS41 KRNK 221735
TAFLWB
TAF
KLWB 221735Z 2218/2318 33009G19KT P6SM VCSH BKN040
      TEMPO 2220/2222 5SM -SHRA BKN030
     FM230000 00000KT P6SM BKN035
     FM230700 00000KT 2SM BR BKN035
     FM231300 00000KT P6SM BKN008
     FM231500 33004KT P6SM BKN025=

USA.gov is the U.S. government's official web portal to all federal, state and local government web resources and services.